Time;durP1;ratioP1;P1;durP2;ratioP2;P2;SDS_P1;SDS_P2;PMS_P1;PMS_P2;Temp;Humidity;BMP_temperature;BMP_pressure;BME280_temperature;BME280_humidity;BME280_pressure;Samples;Min_cycle;Max_cycle;Signal;HPM_P1;HPM_P2
2021/05/24 00:00:59;;;;;;;;;;;;;;;24.51;61.91;101407.97;5034132;28;855;-81
2021/05/24 00:03:24;;;;;;;;;;;;;;;24.51;61.91;101407.97;5033810;28;904;-81
2021/05/24 00:05:50;;;;;;;;;;;;;;;24.51;62.13;101407.19;5034031;28;810;-82
2021/05/24 00:08:15;;;;;;;;;;;;;;;24.50;62.13;101406.34;5034173;28;807;-81
2021/05/24 00:10:42;;;;;;;;;;;;;;;24.50;62.39;101403.59;5033924;28;1937;-81
2021/05/24 00:13:08;;;;;;;;;;;;;;;24.49;62.02;101401.94;5033857;28;894;-81
2021/05/24 00:15:39;;;;;;;;;;;;;;;24.50;62.14;101405.53;5033829;28;1043;-81
2021/05/24 00:18:05;;;;;;;;;;;;;;;24.50;62.44;101420.09;5033730;28;886;-82
2021/05/24 00:20:32;;;;;;;;;;;;;;;24.51;62.37;101419.00;5032402;28;1928;-73
2021/05/24 00:22:57;;;;;;;;;;;;;;;24.51;62.69;101416.25;5030742;28;1306;-73
2021/05/24 00:25:23;;;;;;;;;;;;;;;24.52;62.46;101422.56;5032197;28;1218;-71
2021/05/24 00:27:48;;;;;;;;;;;;;;;24.55;62.67;101415.63;5031713;28;846;-70
2021/05/24 00:30:15;;;;;;;;;;;;;;;24.56;62.75;101412.56;5031826;28;880;-70
2021/05/24 00:32:40;;;;;;;;;;;;;;;24.57;62.95;101416.13;5031571;28;831;-70
2021/05/24 00:35:07;;;;;;;;;;;;;;;24.58;62.51;101415.84;5031787;28;817;-71
2021/05/24 00:37:32;;;;;;;;;;;;;;;24.58;62.66;101410.31;5031792;28;901;-71
2021/05/24 00:39:58;;;;;;;;;;;;;;;24.61;62.71;101403.38;5032358;28;1917;-77
2021/05/24 00:42:23;;;;;;;;;;;;;;;24.62;62.52;101402.28;5032339;28;1153;-71
2021/05/24 00:44:48;;;;;;;;;;;;;;;24.62;62.48;101405.84;5031609;28;943;-73
2021/05/24 00:47:14;;;;;;;;;;;;;;;24.62;62.52;101399.50;5031309;28;914;-74
2021/05/24 00:49:44;;;;;;;;;;;;;;;24.61;62.00;101393.19;5031113;28;1338;-74
2021/05/24 00:52:09;;;;;;;;;;;;;;;24.62;62.04;101394.00;5031351;28;873;-72
2021/05/24 00:54:34;;;;;;;;;;;;;;;24.62;62.00;101397.56;5031316;28;920;-71
2021/05/24 00:57:00;;;;;;;;;;;;;;;24.62;61.93;101399.50;5031249;28;874;-71
2021/05/24 00:59:25;;;;;;;;;;;;;;;24.61;61.91;101409.72;5030937;28;1013;-72
2021/05/24 01:01:51;;;;;;;;;;;;;;;24.62;61.54;101407.78;5030853;28;1979;-71
2021/05/24 01:04:18;;;;;;;;;;;;;;;24.62;61.25;101399.50;5031238;28;870;-71
2021/05/24 01:06:44;;;;;;;;;;;;;;;24.62;61.34;101396.75;5031400;28;908;-71
2021/05/24 01:09:09;;;;;;;;;;;;;;;24.61;61.17;101395.97;5031118;28;798;-71
2021/05/24 01:11:34;;;;;;;;;;;;;;;24.62;60.96;101400.31;5031162;28;880;-72
2021/05/24 01:14:00;;;;;;;;;;;;;;;24.63;61.09;101399.22;5031003;28;881;-71
2021/05/24 01:16:26;;;;;;;;;;;;;;;24.64;60.96;101400.84;5030757;28;940;-71
2021/05/24 01:18:51;;;;;;;;;;;;;;;24.64;60.89;101400.03;5030810;28;917;-71
2021/05/24 01:21:17;;;;;;;;;;;;;;;24.64;61.28;101398.09;5031018;28;1875;-71
2021/05/24 01:23:42;;;;;;;;;;;;;;;24.64;60.81;101389.81;5030941;28;808;-71
2021/05/24 01:26:08;;;;;;;;;;;;;;;24.64;61.01;101383.50;5030916;28;934;-72
2021/05/24 01:28:33;;;;;;;;;;;;;;;24.66;60.77;101381.25;5030909;28;877;-72
2021/05/24 01:30:59;;;;;;;;;;;;;;;24.65;60.71;101385.97;5030689;28;812;-73
2021/05/24 01:33:24;;;;;;;;;;;;;;;24.64;61.13;101384.31;5030984;28;869;-72
2021/05/24 01:35:49;;;;;;;;;;;;;;;24.65;60.62;101382.38;5030915;28;887;-72
2021/05/24 01:38:14;;;;;;;;;;;;;;;24.65;60.45;101376.84;5030836;28;1283;-72
2021/05/24 01:40:41;;;;;;;;;;;;;;;24.63;60.72;101377.19;5030586;28;1936;-72
2021/05/24 01:43:07;;;;;;;;;;;;;;;24.63;60.66;101368.09;5030685;28;913;-72
2021/05/24 01:45:32;;;;;;;;;;;;;;;24.64;60.34;101367.78;5030587;28;877;-72
2021/05/24 01:47:57;;;;;;;;;;;;;;;24.63;61.12;101366.16;5030558;28;863;-74
2021/05/24 01:50:23;;;;;;;;;;;;;;;24.65;60.86;101372.19;5030488;28;1312;-73
2021/05/24 01:52:48;;;;;;;;;;;;;;;24.65;61.62;101369.44;5030709;28;880;-72
2021/05/24 01:55:14;;;;;;;;;;;;;;;24.66;61.38;101370.25;5030605;28;1057;-72
2021/05/24 01:57:40;;;;;;;;;;;;;;;24.65;60.59;101363.91;5030693;28;897;-72
2021/05/24 02:00:06;;;;;;;;;;;;;;;24.65;61.05;101372.19;5030208;28;1984;-72
2021/05/24 02:02:31;;;;;;;;;;;;;;;24.65;60.68;101377.69;5030591;28;1146;-73
2021/05/24 02:04:57;;;;;;;;;;;;;;;24.66;61.24;101378.50;5030580;28;902;-73
2021/05/24 02:07:26;;;;;;;;;;;;;;;24.66;61.50;101395.84;5029195;28;1209;-73
2021/05/24 02:09:51;;;;;;;;;;;;;;;24.70;61.27;101407.06;5030249;28;1430;-83
2021/05/24 02:12:16;;;;;;;;;;;;;;;24.68;61.34;101414.81;5032446;28;787;-72
2021/05/24 02:14:43;;;;;;;;;;;;;;;24.67;61.66;101419.53;5034222;28;905;-72
2021/05/24 02:17:08;;;;;;;;;;;;;;;24.67;60.99;101411.25;5034409;28;854;-72
2021/05/24 02:19:33;;;;;;;;;;;;;;;24.65;61.07;101405.25;5034428;28;1941;-72
2021/05/24 02:21:59;;;;;;;;;;;;;;;24.66;61.07;101406.84;5034446;28;894;-72
2021/05/24 02:24:24;;;;;;;;;;;;;;;24.64;60.59;101400.03;5034183;28;893;-72
2021/05/24 02:26:49;;;;;;;;;;;;;;;24.65;60.79;101404.41;5034394;28;900;-72
2021/05/24 02:29:15;;;;;;;;;;;;;;;24.65;60.53;101405.25;5033789;28;917;-72
2021/05/24 02:31:40;;;;;;;;;;;;;;;24.65;61.03;101413.50;5033748;28;1803;-72
2021/05/24 02:34:06;;;;;;;;;;;;;;;24.69;61.47;101419.22;5034636;28;893;-73
2021/05/24 02:36:32;;;;;;;;;;;;;;;24.72;61.06;101426.84;5034298;28;819;-72
2021/05/24 02:38:57;;;;;;;;;;;;;;;24.75;61.33;101428.19;5032377;28;1779;-72
2021/05/24 02:41:23;;;;;;;;;;;;;;;24.76;61.29;101436.16;5033141;28;1925;-73
2021/05/24 02:43:48;;;;;;;;;;;;;;;24.69;55.18;101433.00;5033420;28;1203;-73
2021/05/24 02:46:14;;;;;;;;;;;;;;;24.72;57.15;101432.38;5034235;28;866;-77
2021/05/24 02:48:40;;;;;;;;;;;;;;;24.72;55.29;101435.94;5034304;28;889;-73
2021/05/24 02:51:06;;;;;;;;;;;;;;;24.69;55.27;101444.00;5033878;28;1168;-68
2021/05/24 02:53:32;;;;;;;;;;;;;;;24.67;54.47;101438.81;5032673;28;853;-74
2021/05/24 02:55:57;;;;;;;;;;;;;;;24.60;54.76;101445.84;5033725;28;1373;-72
2021/05/24 02:58:22;;;;;;;;;;;;;;;24.58;54.72;101451.63;5033448;28;903;-72
2021/05/24 03:00:48;;;;;;;;;;;;;;;24.57;54.55;101444.50;5033641;28;1973;-72
2021/05/24 03:03:14;;;;;;;;;;;;;;;24.52;53.85;101447.34;5033667;28;875;-72
2021/05/24 03:05:39;;;;;;;;;;;;;;;24.51;54.34;101449.28;5033443;28;837;-72
2021/05/24 03:08:05;;;;;;;;;;;;;;;24.52;54.68;101448.16;5033448;28;842;-72
2021/05/24 03:10:30;;;;;;;;;;;;;;;24.52;55.70;101441.84;5032568;28;1862;-73
2021/05/24 03:12:56;;;;;;;;;;;;;;;24.52;55.85;101448.16;5031941;28;1914;-73
2021/05/24 03:15:21;;;;;;;;;;;;;;;24.52;55.80;101448.16;5032470;28;1703;-73
2021/05/24 03:17:46;;;;;;;;;;;;;;;24.51;54.98;101448.47;5032709;28;932;-73
2021/05/24 03:20:13;;;;;;;;;;;;;;;24.51;55.65;101443.78;5031583;28;1879;-73
2021/05/24 03:22:38;;;;;;;;;;;;;;;24.49;56.81;101447.94;5030632;28;871;-73
2021/05/24 03:25:04;;;;;;;;;;;;;;;24.46;57.36;101441.09;5030324;28;819;-73
2021/05/24 03:27:30;;;;;;;;;;;;;;;24.45;57.55;101449.66;5030221;28;894;-73
2021/05/24 03:29:55;;;;;;;;;;;;;;;24.43;56.79;101449.97;5030720;28;866;-73
2021/05/24 03:32:21;;;;;;;;;;;;;;;24.42;57.10;101461.28;5030869;28;795;-73
2021/05/24 03:34:46;;;;;;;;;;;;;;;24.40;56.96;101467.06;5031538;28;854;-73
2021/05/24 03:37:11;;;;;;;;;;;;;;;24.37;56.24;101475.13;5032182;28;813;-73
2021/05/24 03:39:37;;;;;;;;;;;;;;;24.35;56.44;101469.94;5031932;28;1854;-73
2021/05/24 03:42:02;;;;;;;;;;;;;;;24.35;55.34;101480.09;5031640;28;876;-73
2021/05/24 03:44:27;;;;;;;;;;;;;;;24.33;56.08;101481.25;5031978;28;954;-73
2021/05/24 03:46:53;;;;;;;;;;;;;;;24.33;57.01;101481.25;5031650;28;869;-73
2021/05/24 03:49:18;;;;;;;;;;;;;;;24.32;55.98;101482.34;5031820;28;1114;-73
2021/05/24 03:51:43;;;;;;;;;;;;;;;24.31;56.04;101475.22;5031762;28;815;-73
2021/05/24 03:54:09;;;;;;;;;;;;;;;24.30;56.28;101478.28;5031704;28;897;-73
2021/05/24 03:56:35;;;;;;;;;;;;;;;24.30;56.34;101475.53;5030223;28;1374;-73
2021/05/24 03:59:00;;;;;;;;;;;;;;;24.28;55.12;101488.78;5031764;28;802;-73
2021/05/24 04:01:25;;;;;;;;;;;;;;;24.28;55.57;101486.00;5031664;28;1914;-73
2021/05/24 04:03:52;;;;;;;;;;;;;;;24.26;54.95;101486.31;5031960;28;740;-73
2021/05/24 04:06:18;;;;;;;;;;;;;;;24.26;55.60;101502.81;5031604;28;814;-73
2021/05/24 04:08:45;;;;;;;;;;;;;;;24.25;55.48;101511.41;5031142;28;791;-73
2021/05/24 04:11:11;;;;;;;;;;;;;;;24.25;55.81;101512.22;5030015;28;1211;-73
2021/05/24 04:13:36;;;;;;;;;;;;;;;24.26;56.30;101516.59;5031293;28;961;-73
2021/05/24 04:16:02;;;;;;;;;;;;;;;24.23;55.12;101528.22;5031340;28;783;-73
2021/05/24 04:18:30;;;;;;;;;;;;;;;24.23;55.10;101532.91;5031349;28;803;-73
2021/05/24 04:20:56;;;;;;;;;;;;;;;24.23;55.33;101536.47;5031206;28;1870;-73
2021/05/24 04:23:21;;;;;;;;;;;;;;;24.22;55.32;101540.34;5030756;28;818;-73
2021/05/24 04:25:47;;;;;;;;;;;;;;;24.23;55.58;101546.69;5031111;28;783;-73
2021/05/24 04:28:12;;;;;;;;;;;;;;;24.22;55.42;101542.28;5031080;28;1055;-73
2021/05/24 04:30:38;;;;;;;;;;;;;;;24.21;55.65;101544.22;5029697;28;1211;-73
2021/05/24 04:33:03;;;;;;;;;;;;;;;24.21;54.96;101537.91;5031004;28;929;-73
2021/05/24 04:35:28;;;;;;;;;;;;;;;24.21;55.38;101537.91;5030250;28;917;-73
2021/05/24 04:37:54;;;;;;;;;;;;;;;24.20;55.41;101542.56;5030519;28;898;-73
2021/05/24 04:40:19;;;;;;;;;;;;;;;24.21;56.18;101548.91;5030898;28;1934;-73
2021/05/24 04:42:46;;;;;;;;;;;;;;;24.21;56.72;101552.47;5030782;28;989;-73
2021/05/24 04:45:11;;;;;;;;;;;;;;;24.20;56.48;101548.06;5030441;28;1249;-73
2021/05/24 04:47:37;;;;;;;;;;;;;;;24.20;56.03;101553.59;5030368;28;1246;-73
2021/05/24 04:50:02;;;;;;;;;;;;;;;24.19;56.25;101557.47;5030302;28;1271;-73
2021/05/24 04:52:28;;;;;;;;;;;;;;;24.19;55.01;101567.66;5030328;28;799;-73
2021/05/24 04:54:53;;;;;;;;;;;;;;;24.18;55.68;101575.09;5030592;28;867;-73
2021/05/24 04:57:18;;;;;;;;;;;;;;;24.18;55.58;101574.28;5030687;28;802;-73
2021/05/24 04:59:44;;;;;;;;;;;;;;;24.15;55.89;101563.84;5026960;28;1910;-72
2021/05/24 05:02:09;;;;;;;;;;;;;;;24.13;55.95;101573.22;5029965;28;1760;-72
2021/05/24 05:04:35;;;;;;;;;;;;;;;24.14;55.30;101565.78;5030140;28;875;-72
2021/05/24 05:07:00;;;;;;;;;;;;;;;24.16;55.63;101576.50;5028286;28;1016;-72
2021/05/24 05:09:26;;;;;;;;;;;;;;;24.15;55.34;101564.69;5028853;28;775;-72
2021/05/24 05:11:55;;;;;;;;;;;;;;;24.17;55.65;101575.41;5028444;28;803;-72
2021/05/24 05:14:23;;;;;;;;;;;;;;;24.17;55.44;101583.66;5028425;28;937;-72
2021/05/24 05:16:49;;;;;;;;;;;;;;;24.16;55.32;101584.75;5028290;28;790;-72
2021/05/24 05:19:16;;;;;;;;;;;;;;;24.13;54.66;101581.50;5028498;28;783;-72
2021/05/24 05:21:41;;;;;;;;;;;;;;;24.12;55.34;101590.84;5029631;28;1862;-72
2021/05/24 05:24:07;;;;;;;;;;;;;;;24.13;55.37;101594.44;5030204;28;824;-72
2021/05/24 05:26:32;;;;;;;;;;;;;;;24.16;55.93;101595.78;5030222;28;803;-72
2021/05/24 05:28:58;;;;;;;;;;;;;;;24.04;55.20;101580.50;5029968;28;1044;-72
2021/05/24 05:31:24;;;;;;;;;;;;;;;24.18;54.79;101605.38;5029993;28;926;-72
2021/05/24 05:33:49;;;;;;;;;;;;;;;24.19;54.47;101617.22;5030151;28;775;-72
2021/05/24 05:36:14;;;;;;;;;;;;;;;24.18;54.46;101624.63;5029755;28;900;-72
2021/05/24 05:38:40;;;;;;;;;;;;;;;24.19;54.75;101634.53;5029923;28;838;-72
2021/05/24 05:41:05;;;;;;;;;;;;;;;24.21;54.32;101642.50;5029924;28;1995;-72
2021/05/24 05:43:31;;;;;;;;;;;;;;;24.21;54.29;101653.53;5029833;28;893;-72
2021/05/24 05:45:56;;;;;;;;;;;;;;;24.20;54.01;101638.09;5029954;28;878;-72
2021/05/24 05:48:22;;;;;;;;;;;;;;;24.21;54.53;101642.50;5029794;28;799;-72
2021/05/24 05:50:47;;;;;;;;;;;;;;;24.21;54.77;101648.00;5029311;28;1178;-72
2021/05/24 05:53:13;;;;;;;;;;;;;;;24.20;54.50;101649.94;5029727;28;838;-72
2021/05/24 05:55:38;;;;;;;;;;;;;;;24.21;55.13;101648.81;5029840;28;976;-72
2021/05/24 05:58:04;;;;;;;;;;;;;;;24.19;54.36;101653.81;5029656;28;830;-72
2021/05/24 06:00:30;;;;;;;;;;;;;;;24.20;54.41;101654.63;5029681;28;1969;-72
2021/05/24 06:02:55;;;;;;;;;;;;;;;24.18;53.44;101657.66;5029710;28;858;-72
2021/05/24 06:05:20;;;;;;;;;;;;;;;24.19;54.75;101664.81;5029354;28;850;-72
2021/05/24 06:07:46;;;;;;;;;;;;;;;24.22;55.12;101668.91;5029532;28;1056;-72
2021/05/24 06:10:12;;;;;;;;;;;;;;;24.21;54.39;101661.78;5030044;28;782;-72
2021/05/24 06:12:38;;;;;;;;;;;;;;;24.21;54.57;101661.78;5029701;28;803;-72
2021/05/24 06:15:04;;;;;;;;;;;;;;;24.20;53.84;101665.63;5029446;28;921;-72
2021/05/24 06:17:30;;;;;;;;;;;;;;;24.20;54.44;101658.19;5029846;28;842;-72
2021/05/24 06:19:55;;;;;;;;;;;;;;;24.20;54.09;101668.38;5029136;28;1878;-72
2021/05/24 06:22:20;;;;;;;;;;;;;;;24.18;54.26;101657.66;5029401;28;929;-72
2021/05/24 06:24:46;;;;;;;;;;;;;;;24.18;54.22;101670.63;5029661;28;921;-72
2021/05/24 06:27:11;;;;;;;;;;;;;;;24.18;53.84;101663.16;5029689;28;1031;-72
2021/05/24 06:29:37;;;;;;;;;;;;;;;24.19;54.36;101681.34;5029497;28;835;-72
2021/05/24 06:32:02;;;;;;;;;;;;;;;24.19;53.31;101678.59;5029871;28;826;-72
2021/05/24 06:34:27;;;;;;;;;;;;;;;24.18;54.97;101687.94;5029106;28;845;-72
2021/05/24 06:36:53;;;;;;;;;;;;;;;24.19;54.99;101684.09;5029645;28;762;-72
2021/05/24 06:39:20;;;;;;;;;;;;;;;24.19;54.20;101695.09;5028034;28;1220;-72
2021/05/24 06:41:45;;;;;;;;;;;;;;;24.18;54.50;101693.44;5029543;28;1929;-72
2021/05/24 06:44:11;;;;;;;;;;;;;;;24.19;54.63;101697.03;5029266;28;822;-72
2021/05/24 06:46:36;;;;;;;;;;;;;;;24.19;54.90;101686.84;5029905;28;865;-72
2021/05/24 06:49:01;;;;;;;;;;;;;;;24.20;55.36;101684.91;5028827;28;933;-72
2021/05/24 06:51:27;;;;;;;;;;;;;;;24.19;54.75;101694.28;5029016;28;1146;-72
2021/05/24 06:53:52;;;;;;;;;;;;;;;24.19;54.66;101694.28;5029308;28;874;-72
2021/05/24 06:56:18;;;;;;;;;;;;;;;24.19;55.00;101695.09;5029032;28;1254;-72
2021/05/24 06:58:43;;;;;;;;;;;;;;;24.20;55.33;101709.66;5032358;28;949;-72
2021/05/24 07:01:09;;;;;;;;;;;;;;;24.19;54.76;101706.09;5034307;28;1941;-72
2021/05/24 07:03:34;;;;;;;;;;;;;;;24.20;55.61;101702.22;5032428;28;787;-72
2021/05/24 07:05:59;;;;;;;;;;;;;;;24.20;55.14;101704.16;5032320;28;1297;-72
2021/05/24 07:08:25;;;;;;;;;;;;;;;24.19;55.10;101702.53;5032654;28;824;-72
2021/05/24 07:10:50;;;;;;;;;;;;;;;24.20;55.26;101712.44;5032536;28;969;-72
2021/05/24 07:13:15;;;;;;;;;;;;;;;24.19;54.93;101716.31;5032322;28;799;-72
2021/05/24 07:15:41;;;;;;;;;;;;;;;24.19;54.77;101710.81;5032597;28;818;-72
2021/05/24 07:18:06;;;;;;;;;;;;;;;24.18;55.00;101706.41;5032059;28;1114;-72
2021/05/24 07:20:31;;;;;;;;;;;;;;;24.18;54.81;101709.97;5032827;28;1874;-72
2021/05/24 07:22:57;;;;;;;;;;;;;;;24.18;54.52;101714.66;5032589;28;893;-72
2021/05/24 07:25:22;;;;;;;;;;;;;;;24.20;54.95;101723.44;5032274;28;787;-72
2021/05/24 07:27:47;;;;;;;;;;;;;;;24.19;54.76;101722.63;5032470;28;886;-72
2021/05/24 07:30:13;;;;;;;;;;;;;;;24.20;54.65;101728.94;5032271;28;795;-72
2021/05/24 07:32:38;;;;;;;;;;;;;;;24.20;54.87;101721.50;5032152;28;1095;-72
2021/05/24 07:35:04;;;;;;;;;;;;;;;24.21;54.35;101722.34;5031846;28;1218;-72
2021/05/24 07:37:30;;;;;;;;;;;;;;;24.21;54.59;101719.59;5031835;28;1248;-72
2021/05/24 07:39:55;;;;;;;;;;;;;;;24.22;54.83;101726.72;5031889;28;1917;-72
2021/05/24 07:42:20;;;;;;;;;;;;;;;24.21;54.77;101730.59;5031977;28;971;-72
2021/05/24 07:44:46;;;;;;;;;;;;;;;24.22;54.59;101740.47;5031582;28;1093;-72
2021/05/24 07:47:11;;;;;;;;;;;;;;;24.21;54.75;101725.09;5030784;28;1087;-72
2021/05/24 07:49:36;;;;;;;;;;;;;;;24.21;54.79;101731.41;5031327;28;1214;-72
2021/05/24 07:52:03;;;;;;;;;;;;;;;24.22;54.51;101740.47;5031332;28;1230;-72
2021/05/24 07:54:28;;;;;;;;;;;;;;;24.21;54.55;101730.59;5031198;28;1289;-72
2021/05/24 07:56:53;;;;;;;;;;;;;;;24.22;54.91;101737.72;5031179;28;1178;-72
2021/05/24 07:59:19;;;;;;;;;;;;;;;24.23;54.68;101747.63;5031017;28;1202;-72
2021/05/24 08:01:44;;;;;;;;;;;;;;;24.22;54.56;101749.53;5030827;28;1918;-72
2021/05/24 08:04:10;;;;;;;;;;;;;;;24.23;53.94;101750.38;5030756;28;1431;-72
2021/05/24 08:06:36;;;;;;;;;;;;;;;24.23;54.05;101753.94;5031058;28;1297;-72
2021/05/24 08:09:02;;;;;;;;;;;;;;;24.24;53.63;101747.31;5030991;28;1313;-72
2021/05/24 08:11:27;;;;;;;;;;;;;;;24.24;52.74;101749.25;5030688;28;1218;-72
2021/05/24 08:13:53;;;;;;;;;;;;;;;24.23;52.51;101747.63;5030873;28;1266;-72
2021/05/24 08:16:19;;;;;;;;;;;;;;;24.24;52.65;101743.75;5030518;28;1285;-72
2021/05/24 08:18:44;;;;;;;;;;;;;;;24.25;52.15;101756.41;5030174;28;1195;-72
2021/05/24 08:21:10;;;;;;;;;;;;;;;24.24;51.51;101757.53;5030550;28;1906;-72
2021/05/24 08:23:36;;;;;;;;;;;;;;;24.23;51.77;101758.66;5030755;28;1356;-72
2021/05/24 08:26:01;;;;;;;;;;;;;;;24.24;52.10;101761.09;5030878;28;1404;-72
2021/05/24 08:28:27;;;;;;;;;;;;;;;24.25;51.44;101761.94;5030885;28;1202;-72
2021/05/24 08:30:53;;;;;;;;;;;;;;;24.24;50.72;101757.53;5030193;28;1266;-72
2021/05/24 08:33:18;;;;;;;;;;;;;;;24.23;50.13;101756.72;5030400;28;1286;-72
2021/05/24 08:35:43;;;;;;;;;;;;;;;24.22;49.63;101762.50;5030567;28;1207;-72
2021/05/24 08:38:08;;;;;;;;;;;;;;;24.22;49.96;101768.81;5030402;28;1389;-72
2021/05/24 08:40:34;;;;;;;;;;;;;;;24.23;49.68;101758.66;5030097;28;1936;-73
2021/05/24 08:43:00;;;;;;;;;;;;;;;24.23;49.21;101764.16;5030979;28;1238;-72
2021/05/24 08:45:29;;;;;;;;;;;;;;;24.25;49.73;101771.00;5029707;28;1337;-72
2021/05/24 08:47:54;;;;;;;;;;;;;;;24.26;50.22;101771.81;5030199;28;1202;-72
2021/05/24 08:50:19;;;;;;;;;;;;;;;24.26;50.43;101772.63;5027926;28;1337;-72
2021/05/24 08:52:45;;;;;;;;;;;;;;;24.27;50.56;101773.47;5030114;28;1428;-72
2021/05/24 08:55:11;;;;;;;;;;;;;;;24.29;50.39;101779.50;5030067;28;1234;-72
2021/05/24 08:57:40;;;;;;;;;;;;;;;24.30;50.51;101784.69;5030092;28;1277;-72
2021/05/24 09:00:07;;;;;;;;;;;;;;;24.31;51.10;101775.31;5029641;28;1914;-72
2021/05/24 09:02:33;;;;;;;;;;;;;;;24.31;50.79;101780.81;5029921;28;1084;-72
2021/05/24 09:05:03;;;;;;;;;;;;;;;24.29;50.04;101794.06;5029990;28;1274;-72
2021/05/24 09:07:28;;;;;;;;;;;;;;;24.30;49.67;101792.13;5029885;28;1293;-72
2021/05/24 09:09:58;;;;;;;;;;;;;;;24.29;49.04;101787.75;5029929;28;1312;-72
2021/05/24 09:12:30;;;;;;;;;;;;;;;24.31;49.67;101791.03;5029636;28;1408;-72
2021/05/24 09:14:56;;;;;;;;;;;;;;;24.30;49.59;101801.19;5029419;28;1231;-72
2021/05/24 09:17:22;;;;;;;;;;;;;;;24.32;50.32;101798.16;5029730;28;1269;-72
2021/05/24 09:19:47;;;;;;;;;;;;;;;24.32;49.65;101796.22;5028323;28;1952;-72
2021/05/24 09:22:13;;;;;;;;;;;;;;;24.32;49.36;101792.66;5029385;28;1258;-73
2021/05/24 09:24:39;;;;;;;;;;;;;;;24.32;49.21;101789.91;5029658;28;1152;-72
2021/05/24 09:27:27;;;;;;;;;;;;;;;24.32;49.69;101790.72;5033323;28;1380;-72
2021/05/24 09:29:56;;;;;;;;;;;;;;;24.33;49.53;101795.13;5030613;28;1194;-72
2021/05/24 09:32:25;;;;;;;;;;;;;;;24.35;50.05;101799.50;5029981;28;901;-72
2021/05/24 09:34:51;;;;;;;;;;;;;;;24.35;49.50;101777.47;5030026;28;862;-72
2021/05/24 09:37:17;;;;;;;;;;;;;;;24.36;49.31;101801.16;5029708;28;1089;-72
2021/05/24 09:39:43;;;;;;;;;;;;;;;24.36;50.28;101799.22;5029913;28;862;-72
2021/05/24 09:42:09;;;;;;;;;;;;;;;24.36;49.20;101801.16;5029518;28;1878;-72
2021/05/24 09:44:41;;;;;;;;;;;;;;;24.35;50.18;101808.59;5029576;28;1115;-72
2021/05/24 09:47:07;;;;;;;;;;;;;;;24.35;49.64;101822.38;5029755;28;858;-72
2021/05/24 09:49:34;;;;;;;;;;;;;;;24.37;49.06;101816.53;5028705;28;1586;-71
2021/05/24 09:51:59;;;;;;;;;;;;;;;24.38;49.43;101812.69;5027700;28;2178;-72
2021/05/24 09:54:35;;;;;;;;;;;;;;;24.41;49.34;101817.59;5009089;28;1734;-71
2021/05/24 09:57:05;;;;;;;;;;;;;;;24.40;49.57;101818.72;5028827;28;1775;-70
2021/05/24 09:59:31;;;;;;;;;;;;;;;24.42;49.58;101816.50;5029573;28;1276;-73
2021/05/24 10:01:58;;;;;;;;;;;;;;;24.42;49.36;101833.00;5029583;28;1982;-73
2021/05/24 10:04:25;;;;;;;;;;;;;;;24.42;49.70;101827.50;5029983;28;1058;-73
2021/05/24 10:06:51;;;;;;;;;;;;;;;24.40;49.78;101825.03;5030131;28;1102;-73
2021/05/24 10:09:17;;;;;;;;;;;;;;;24.40;49.47;101832.50;5029796;28;917;-73
2021/05/24 10:11:44;;;;;;;;;;;;;;;24.38;49.29;101840.22;5029908;28;1619;-72
2021/05/24 10:14:10;;;;;;;;;;;;;;;24.35;48.97;101827.03;5030354;28;955;-73
2021/05/24 10:16:38;;;;;;;;;;;;;;;24.35;49.13;101846.31;5029270;28;2056;-73
2021/05/24 10:19:06;;;;;;;;;;;;;;;24.34;48.99;101845.50;5030510;28;852;-73
2021/05/24 10:21:31;;;;;;;;;;;;;;;24.31;48.04;101824.88;5030181;28;1870;-73
2021/05/24 10:23:56;;;;;;;;;;;;;;;24.31;48.59;101830.38;5029995;28;1215;-72
2021/05/24 10:26:22;;;;;;;;;;;;;;;24.31;48.52;101824.06;5029302;28;885;-73
2021/05/24 10:28:48;;;;;;;;;;;;;;;24.32;48.82;101822.94;5029381;28;1751;-72
2021/05/24 10:31:28;;;;;;;;;;;;;;;24.31;48.88;101827.63;5029847;28;878;-73
2021/05/24 10:33:54;;;;;;;;;;;;;;;24.27;48.08;101825.78;5032703;28;818;-72
2021/05/24 10:36:21;;;;;;;;;;;;;;;24.23;48.12;101822.78;5032415;28;2105;-73
2021/05/24 10:39:04;;;;;;;;;;;;;;;24.23;47.87;101827.47;5032207;28;1709;-73
2021/05/24 10:41:49;;;;;;;;;;;;;;;24.22;48.57;101832.13;5044926;28;1878;-72
2021/05/24 10:44:21;;;;;;;;;;;;;;;24.21;48.74;101847.03;5033650;28;1245;-73
2021/05/24 10:46:47;;;;;;;;;;;;;;;24.19;48.31;101840.19;5033084;28;1161;-72
2021/05/24 10:49:12;;;;;;;;;;;;;;;24.18;48.44;101855.03;5033455;28;880;-72
2021/05/24 10:51:58;;;;;;;;;;;;;;;24.15;48.47;101839.94;5051322;28;1149;-73
2021/05/24 10:54:28;;;;;;;;;;;;;;;24.15;48.30;101831.69;5040703;28;1347;-72
2021/05/24 10:57:00;;;;;;;;;;;;;;;24.17;48.83;101834.16;5032264;28;1806;-73
2021/05/24 10:59:41;;;;;;;;;;;;;;;24.17;48.96;101828.66;5015864;28;2915;-72
2021/05/24 11:02:10;;;;;;;;;;;;;;;24.17;48.79;101836.91;5039083;28;2568;-72
2021/05/24 11:04:48;;;;;;;;;;;;;;;24.15;49.37;101833.59;5028004;28;2491;-70
2021/05/24 11:07:33;;;;;;;;;;;;;;;24.18;50.08;101828.31;5032573;28;1589;-73
2021/05/24 11:10:22;;;;;;;;;;;;;;;24.17;48.99;101823.13;5024189;28;1630;-72
2021/05/24 11:12:47;;;;;;;;;;;;;;;24.12;48.95;101830.31;5029031;28;1540;-73
2021/05/24 11:15:14;;;;;;;;;;;;;;;24.12;48.49;101821.25;5017625;28;1625;-73
2021/05/24 11:17:58;;;;;;;;;;;;;;;24.12;48.16;101844.06;5039507;28;2651;-72
2021/05/24 11:20:48;;;;;;;;;;;;;;;24.09;48.55;101825.41;5041954;28;1870;-73
2021/05/24 11:26:14;;;;;;;;;;;;;;;24.06;48.36;101809.47;5023029;28;1091;-73
2021/05/24 11:28:59;;;;;;;;;;;;;;;24.01;47.92;101825.22;5035386;28;1601;-73
2021/05/24 11:31:26;;;;;;;;;;;;;;;24.00;47.50;101823.56;5034822;28;1687;-73
2021/05/24 11:33:56;;;;;;;;;;;;;;;24.00;47.51;101840.09;5046205;28;1684;-72
2021/05/24 11:36:27;;;;;;;;;;;;;;;23.99;47.64;101841.22;5041214;28;1647;-72
2021/05/24 11:39:01;;;;;;;;;;;;;;;23.99;47.92;101843.97;5038019;28;1667;-73
2021/05/24 11:41:29;;;;;;;;;;;;;;;23.98;47.83;101839.56;5048762;28;1874;-73
2021/05/24 11:43:55;;;;;;;;;;;;;;;23.98;47.82;101851.38;5037690;28;1554;-73
2021/05/24 11:46:20;;;;;;;;;;;;;;;23.99;48.08;101852.22;5042844;28;1674;-72
2021/05/24 11:48:48;;;;;;;;;;;;;;;23.98;47.92;101850.56;5049101;28;1440;-73
2021/05/24 11:51:14;;;;;;;;;;;;;;;23.97;47.59;101847.00;5035625;28;1545;-73
2021/05/24 11:53:58;;;;;;;;;;;;;;;23.97;47.24;101852.50;5024090;28;965;-72
2021/05/24 11:56:23;;;;;;;;;;;;;;;23.95;46.95;101846.47;5012784;28;922;-72
2021/05/24 11:59:01;;;;;;;;;;;;;;;23.95;47.11;101859.41;5012820;28;905;-72
2021/05/24 12:01:27;;;;;;;;;;;;;;;23.91;46.99;101854.47;4994640;28;2007;-73
2021/05/24 12:03:52;;;;;;;;;;;;;;;23.90;46.92;101841.00;5012494;28;864;-72
2021/05/24 12:06:18;;;;;;;;;;;;;;;23.91;47.19;101837.97;5012444;28;839;-73
2021/05/24 12:08:47;;;;;;;;;;;;;;;23.95;47.67;101856.66;5011749;28;931;-72
2021/05/24 12:11:13;;;;;;;;;;;;;;;23.95;47.56;101843.72;4993975;28;2143;-73
2021/05/24 12:13:59;;;;;;;;;;;;;;;23.96;47.73;101850.84;5008613;28;1779;-73
2021/05/24 12:16:24;;;;;;;;;;;;;;;23.97;48.06;101858.00;5010025;28;1691;-73
2021/05/24 12:18:51;;;;;;;;;;;;;;;23.93;48.10;101848.69;5010878;28;1663;-73
2021/05/24 12:21:36;;;;;;;;;;;;;;;23.93;47.82;101838.50;5018320;28;2748;-73
2021/05/24 12:24:02;;;;;;;;;;;;;;;23.93;47.78;101870.72;5006906;28;1734;-73
2021/05/24 12:26:28;;;;;;;;;;;;;;;23.88;47.66;101846.78;5008957;28;1738;-73
2021/05/24 12:28:53;;;;;;;;;;;;;;;23.89;47.34;101853.13;5008501;28;1652;-73
2021/05/24 12:31:20;;;;;;;;;;;;;;;23.87;47.49;101842.41;5007053;28;1583;-73
2021/05/24 12:33:46;;;;;;;;;;;;;;;23.88;47.23;101834.97;5008647;28;1600;-73
2021/05/24 12:36:14;;;;;;;;;;;;;;;23.86;47.71;101829.75;4989679;28;1181;-73
2021/05/24 12:38:53;;;;;;;;;;;;;;;23.85;47.74;101836.38;5000905;28;877;-73
2021/05/24 12:41:20;;;;;;;;;;;;;;;23.86;47.76;101835.25;5010642;28;1934;-72
2021/05/24 12:43:48;;;;;;;;;;;;;;;23.86;47.79;101845.44;4993333;28;2061;-72
2021/05/24 12:46:14;;;;;;;;;;;;;;;23.83;47.57;101843.28;5011274;28;823;-73
2021/05/24 12:48:39;;;;;;;;;;;;;;;23.83;47.76;101824.84;5011314;28;1586;-73
2021/05/24 12:51:13;;;;;;;;;;;;;;;23.84;47.88;101831.16;5024335;28;1134;-73